Whiteoak, MO (63880)

4:24 AM CST on December 05, 2016 (GMT -0600)
Peach Orchard | | Change Station

Elev 263 ft 36.37 °N, 89.94 °W | Updated 3 minutes ago

Mostly Cloudy
Mostly Cloudy
37.3 °F
Feels Like 37 °F
N
1.0
Wind Variable Wind from NE
Gusts 1.0 mph

Today
High -- | Low -- °F
--% Chance of Precip.
Yesterday
High -- | Low -- °F
Precip. -- in
Pressure 30.06 in
Visibility 10.0 miles
Clouds Mostly Cloudy 2100 ft
Windchill 37 °F
Dew Point 35 °F
Humidity 91%
Rainfall 0.00 in
Snow Depth Not available.
6:57 AM 4:44 PM
Waxing Crescent, 30% visible
METAR KHKA 050953Z AUTO 07003KT 10SM BKN021 05/03 A3006 RMK AO2 SLP179 T00500028
Pressure 30.06 in
Visibility 10.0 miles
Clouds Mostly Cloudy 2100 ft
Windchill 37 °F
Dew Point 35 °F
Humidity 91%
Rainfall 0.00 in
Snow Depth Not available.
6:57 AM 4:44 PM
Waxing Crescent, 30% visible
METAR KHKA 050953Z AUTO 07003KT 10SM BKN021 05/03 A3006 RMK AO2 SLP179 T00500028

10-Day Weather Forecast

Almanac

Astronomy

Dec. 05, 2016 Rise Set
Actual Time
Civil Twilight
Nautical Twilight
Astronomical Twilight
Moon
Length of Visible Light
Length of Day
Tomorrow will be .
, % of the Moon is Illuminated

Today's Extremes

State Highs State Lows

Community

WunderPhotos

Upload Photos

1,955,775 photos uploaded!

WunderBlog® & News

Nearby

Air Quality

  Air Quality AQ Index Pollutant
Not available.

Snow Depth

Station Depth Elevation

Earthquake Activity

City Distance Mag. Time & Date
Minimum magnitude displayed is 2.5.

Coastal Water Temperatures

Place Temperature

Stations

Nearby Weather Stations

Station Location Temp. Windchill Dew Point Humidity Wind Precip. Elev Updated Type
                   

Watches & Warnings

There are currently no watches in effect.